createdAt,value
2023-01-17T00:00:06.765Z,4.55
2023-01-17T00:02:33.331Z,3.63
2023-01-17T00:04:59.871Z,3.72
2023-01-17T00:07:27.795Z,5.43
2023-01-17T00:09:54.315Z,4.93
2023-01-17T00:12:21.601Z,6.10
2023-01-17T00:14:48.555Z,4.05
2023-01-17T00:17:15.438Z,5.25
2023-01-17T00:19:41.887Z,5.03
2023-01-17T00:22:28.934Z,4.90
2023-01-17T00:24:55.563Z,4.03
2023-01-17T00:27:21.999Z,5.28
2023-01-17T00:29:48.533Z,4.47
2023-01-17T00:32:15.030Z,6.90
2023-01-17T00:34:41.477Z,4.72
2023-01-17T00:37:08.126Z,6.32
2023-01-17T00:39:34.572Z,5.93
2023-01-17T00:42:01.074Z,5.78
2023-01-17T00:44:27.490Z,6.53
2023-01-17T00:46:54.006Z,7.22
2023-01-17T00:49:20.560Z,7.30
2023-01-17T00:51:47.197Z,5.63
2023-01-17T00:54:14.420Z,7.38
2023-01-17T00:56:40.947Z,6.10
2023-01-17T00:59:07.479Z,7.18
2023-01-17T01:01:34.946Z,8.50
2023-01-17T01:04:01.551Z,8.25
2023-01-17T01:06:28.106Z,5.93
2023-01-17T01:08:54.573Z,5.87
2023-01-17T01:11:21.533Z,6.85
2023-01-17T01:13:47.993Z,7.15
2023-01-17T01:16:15.292Z,6.90
2023-01-17T01:18:41.820Z,6.07
2023-01-17T01:21:08.338Z,3.53
2023-01-17T01:23:35.293Z,7.10
2023-01-17T01:26:03.862Z,6.45
2023-01-17T01:28:30.428Z,7.75
2023-01-17T01:31:02.491Z,7.60
2023-01-17T01:33:29.024Z,8.33
2023-01-17T01:35:55.813Z,6.88
2023-01-17T01:38:24.759Z,6.65
2023-01-17T01:40:53.852Z,7.10
2023-01-17T01:43:39.546Z,5.85
2023-01-17T01:46:08.011Z,6.87
2023-01-17T01:48:54.986Z,6.82
2023-01-17T01:51:45.618Z,7.65
2023-01-17T01:54:19.318Z,6.40
2023-01-17T01:56:47.079Z,5.57
2023-01-17T01:59:17.542Z,7.50
2023-01-17T02:01:44.122Z,7.65
2023-01-17T02:04:11.222Z,5.53
2023-01-17T02:06:43.767Z,3.95
2023-01-17T02:09:12.683Z,6.53
2023-01-17T02:11:40.277Z,5.23
2023-01-17T02:14:07.182Z,5.18
2023-01-17T02:16:38.045Z,6.40
2023-01-17T02:19:07.399Z,5.95
2023-01-17T02:21:47.835Z,6.72
2023-01-17T02:24:33.513Z,9.83
2023-01-17T02:27:29.447Z,7.68
2023-01-17T02:30:19.001Z,5.78
2023-01-17T02:32:48.748Z,10.15
2023-01-17T02:35:42.186Z,6.25
2023-01-17T02:38:29.393Z,6.70
2023-01-17T02:41:01.391Z,11.38
2023-01-17T02:43:28.183Z,7.50
2023-01-17T02:45:54.783Z,6.70
2023-01-17T02:48:25.673Z,8.20
2023-01-17T02:51:16.783Z,10.30
2023-01-17T02:53:56.640Z,6.55
2023-01-17T02:56:31.694Z,6.93
2023-01-17T02:59:23.855Z,6.82
2023-01-17T03:02:08.967Z,7.78
2023-01-17T03:04:44.845Z,7.97
2023-01-17T03:07:25.888Z,6.85
2023-01-17T03:09:57.391Z,8.77
2023-01-17T03:12:27.918Z,6.78
2023-01-17T03:14:54.428Z,6.53
2023-01-17T03:17:21.603Z,7.07
2023-01-17T03:19:48.062Z,5.40
2023-01-17T03:22:14.484Z,5.68
2023-01-17T03:24:40.951Z,6.60
2023-01-17T03:27:07.432Z,7.53
2023-01-17T03:29:33.966Z,6.07
2023-01-17T03:32:00.562Z,7.22
2023-01-17T03:34:27.138Z,9.90
2023-01-17T03:36:53.572Z,5.93
2023-01-17T03:39:20.040Z,9.55
2023-01-17T03:41:46.442Z,6.87
2023-01-17T03:44:12.854Z,9.30
2023-01-17T03:46:39.382Z,9.27
2023-01-17T03:49:05.883Z,8.57
2023-01-17T03:51:32.423Z,10.23
2023-01-17T03:53:58.869Z,6.73
2023-01-17T03:56:25.294Z,8.38
2023-01-17T03:58:51.730Z,7.47
2023-01-17T04:01:18.293Z,10.50
2023-01-17T04:03:44.905Z,6.63
2023-01-17T04:06:11.455Z,6.97
2023-01-17T04:08:38.001Z,8.43
2023-01-17T04:11:04.631Z,6.72
2023-01-17T04:13:31.176Z,10.48
2023-01-17T04:15:58.011Z,9.35
2023-01-17T04:18:24.826Z,9.60
2023-01-17T04:20:51.690Z,7.72
2023-01-17T04:23:18.592Z,13.60
2023-01-17T04:25:45.174Z,11.50
2023-01-17T04:28:11.943Z,16.48
2023-01-17T04:30:38.454Z,13.60
2023-01-17T04:33:05.256Z,14.30
2023-01-17T04:35:32.463Z,12.30
2023-01-17T04:37:59.458Z,15.73
2023-01-17T04:40:26.018Z,20.63
2023-01-17T04:42:52.602Z,19.70
2023-01-17T04:45:19.157Z,27.50
2023-01-17T04:47:45.622Z,23.73
2023-01-17T04:50:12.337Z,20.70
2023-01-17T04:52:38.821Z,19.75
2023-01-17T04:55:06.141Z,17.47
2023-01-17T04:57:32.830Z,18.23
2023-01-17T04:59:59.429Z,18.15
2023-01-17T05:02:26.045Z,15.10
2023-01-17T05:04:52.629Z,18.17
2023-01-17T05:07:19.159Z,17.23
2023-01-17T05:09:45.721Z,19.48
2023-01-17T05:12:12.112Z,17.95
2023-01-17T05:14:38.703Z,19.38
2023-01-17T05:17:05.211Z,17.20
2023-01-17T05:19:31.788Z,15.53
2023-01-17T05:21:58.221Z,23.25
2023-01-17T05:24:24.655Z,22.63
2023-01-17T05:26:51.173Z,18.88
2023-01-17T05:29:17.665Z,16.95
2023-01-17T05:31:44.169Z,18.40
2023-01-17T05:34:11.387Z,19.30
2023-01-17T05:36:37.964Z,22.35
2023-01-17T05:39:04.544Z,23.45
2023-01-17T05:41:30.992Z,25.25
2023-01-17T05:43:57.465Z,25.83
2023-01-17T05:46:23.967Z,22.65
2023-01-17T05:48:50.452Z,24.80
2023-01-17T05:51:17.086Z,25.52
2023-01-17T05:53:43.593Z,25.25
2023-01-17T05:56:10.053Z,23.63
2023-01-17T05:58:36.560Z,26.90
2023-01-17T06:01:03.046Z,26.90
2023-01-17T06:03:29.784Z,23.92
2023-01-17T06:05:56.248Z,28.10
2023-01-17T06:08:22.836Z,29.60
2023-01-17T06:10:49.729Z,29.52
2023-01-17T06:13:16.164Z,31.60
2023-01-17T06:15:42.774Z,33.42
2023-01-17T06:18:11.820Z,34.58
2023-01-17T06:20:38.626Z,39.77
2023-01-17T06:23:07.048Z,34.25
2023-01-17T06:25:42.186Z,36.63
2023-01-17T06:28:08.696Z,38.70
2023-01-17T06:30:35.526Z,34.33
2023-01-17T06:33:02.560Z,38.67
2023-01-17T06:35:29.272Z,39.38
2023-01-17T06:37:56.089Z,41.72
2023-01-17T06:40:22.539Z,42.97
2023-01-17T06:42:49.000Z,41.15
2023-01-17T06:45:15.602Z,38.80
2023-01-17T06:47:42.689Z,46.95
2023-01-17T06:50:12.022Z,44.40
2023-01-17T06:52:38.474Z,44.40
2023-01-17T06:55:05.416Z,45.15
2023-01-17T06:57:31.908Z,45.63
2023-01-17T06:59:58.373Z,49.95
2023-01-17T07:02:24.933Z,47.65
2023-01-17T07:04:52.022Z,51.35
2023-01-17T07:07:18.567Z,50.72
2023-01-17T07:09:45.018Z,46.40
2023-01-17T07:12:11.478Z,44.55
2023-01-17T07:14:38.008Z,45.10
2023-01-17T07:17:04.719Z,46.63
2023-01-17T07:19:31.178Z,42.65
2023-01-17T07:21:57.743Z,40.50
2023-01-17T07:24:24.469Z,44.80
2023-01-17T07:26:51.814Z,41.35
2023-01-17T07:29:18.846Z,38.63
2023-01-17T07:31:45.467Z,39.70
2023-01-17T07:34:12.107Z,47.57
2023-01-17T07:36:38.544Z,40.60
2023-01-17T07:39:06.368Z,40.65
2023-01-17T07:41:33.858Z,40.70
2023-01-17T07:44:00.542Z,41.83
2023-01-17T07:46:27.237Z,43.67
2023-01-17T07:48:53.704Z,44.28
2023-01-17T07:51:20.188Z,42.78
2023-01-17T07:53:46.741Z,43.42
2023-01-17T07:56:13.245Z,36.40
2023-01-17T07:58:39.723Z,40.47
2023-01-17T08:01:11.799Z,38.03
2023-01-17T08:03:38.731Z,41.28
2023-01-17T08:06:23.761Z,42.70
2023-01-17T08:08:50.348Z,44.40
2023-01-17T08:11:19.379Z,42.73
2023-01-17T08:13:45.865Z,40.30
2023-01-17T08:16:13.578Z,38.92
2023-01-17T08:18:40.268Z,41.63
2023-01-17T08:21:16.943Z,40.65
2023-01-17T08:23:47.806Z,36.97
2023-01-17T08:26:15.124Z,38.33
2023-01-17T08:28:41.626Z,40.90
2023-01-17T08:31:09.310Z,41.40
2023-01-17T08:33:35.733Z,37.58
2023-01-17T08:36:02.307Z,38.27
2023-01-17T08:38:31.541Z,40.85
2023-01-17T08:41:00.993Z,38.22
2023-01-17T08:43:27.416Z,37.88
2023-01-17T08:45:53.972Z,45.28
2023-01-17T08:48:20.499Z,40.47
2023-01-17T08:50:47.079Z,38.45
2023-01-17T08:53:13.556Z,33.33
2023-01-17T08:55:39.996Z,37.22
2023-01-17T08:58:07.299Z,37.65
2023-01-17T09:00:34.577Z,36.83
2023-01-17T09:03:01.097Z,37.28
2023-01-17T09:05:28.145Z,39.40
2023-01-17T09:07:55.531Z,41.72
2023-01-17T09:10:22.576Z,37.85
2023-01-17T09:15:33.526Z,40.42
2023-01-17T09:18:00.006Z,34.95
2023-01-17T09:20:26.617Z,37.25
2023-01-17T09:23:11.824Z,34.00
2023-01-17T09:25:38.338Z,44.13
2023-01-17T09:28:05.043Z,36.38
2023-01-17T09:30:31.930Z,39.35
2023-01-17T09:32:58.431Z,84.60
2023-01-17T09:35:25.044Z,44.70
2023-01-17T09:37:51.858Z,34.77
2023-01-17T09:40:22.753Z,33.20
2023-01-17T09:42:54.056Z,37.38
2023-01-17T09:45:21.174Z,33.15
2023-01-17T09:47:51.041Z,29.92
2023-01-17T09:50:41.793Z,31.87
2023-01-17T09:53:17.696Z,28.08
2023-01-17T09:55:49.404Z,26.52
2023-01-17T09:58:20.925Z,32.05
2023-01-17T10:01:33.484Z,26.70
2023-01-17T10:04:20.498Z,24.63
2023-01-17T10:07:12.096Z,28.10
2023-01-17T10:09:59.496Z,28.65
2023-01-17T10:12:37.089Z,25.73
2023-01-17T10:15:13.509Z,23.50
2023-01-17T10:17:46.736Z,19.13
2023-01-17T10:20:32.620Z,20.50
2023-01-17T10:23:17.524Z,21.45
2023-01-17T10:25:50.433Z,18.17
2023-01-17T10:28:35.129Z,19.77
2023-01-17T10:31:24.910Z,19.30
2023-01-17T10:33:56.457Z,20.92
2023-01-17T10:36:26.138Z,17.63
2023-01-17T10:38:59.425Z,21.23
2023-01-17T10:41:32.056Z,19.83
2023-01-17T10:44:23.378Z,20.87
2023-01-17T10:46:55.371Z,17.35
2023-01-17T10:49:24.942Z,22.00
2023-01-17T10:52:00.587Z,21.38
2023-01-17T10:55:00.832Z,24.73
2023-01-17T10:57:27.931Z,26.53
2023-01-17T11:00:00.260Z,24.27
2023-01-17T11:02:37.341Z,23.40
2023-01-17T11:05:18.341Z,23.63
2023-01-17T11:08:07.093Z,25.50
2023-01-17T11:10:48.731Z,27.60
2023-01-17T11:13:25.940Z,25.17
2023-01-17T11:16:17.964Z,29.80
2023-01-17T11:18:45.115Z,25.52
2023-01-17T11:21:21.893Z,29.83
2023-01-17T11:23:52.248Z,29.30
2023-01-17T11:26:27.911Z,26.85
2023-01-17T11:29:36.932Z,27.20
2023-01-17T11:32:22.234Z,21.90
2023-01-17T11:35:15.116Z,20.50
2023-01-17T11:38:13.616Z,18.07
2023-01-17T11:40:40.118Z,19.23
2023-01-17T11:43:25.228Z,18.30
2023-01-17T11:46:16.376Z,18.90
2023-01-17T11:48:49.525Z,18.45
2023-01-17T11:51:30.200Z,15.87
2023-01-17T11:54:26.450Z,15.88
2023-01-17T11:57:02.335Z,16.40
2023-01-17T11:59:43.196Z,17.27
2023-01-17T12:02:31.572Z,17.40
2023-01-17T12:05:25.673Z,17.60
2023-01-17T12:08:20.071Z,13.43
2023-01-17T12:10:58.131Z,13.45
2023-01-17T12:14:13.023Z,11.57
2023-01-17T12:17:08.361Z,13.55
2023-01-17T12:20:09.881Z,12.83
2023-01-17T12:22:54.987Z,12.60
2023-01-17T12:25:24.148Z,10.23
2023-01-17T12:28:13.539Z,10.98
2023-01-17T12:30:43.009Z,13.25
2023-01-17T12:33:28.259Z,14.97
2023-01-17T12:35:54.656Z,11.45
2023-01-17T12:38:38.580Z,16.17
2023-01-17T12:41:30.936Z,12.88
2023-01-17T12:44:00.266Z,13.68
2023-01-17T12:46:50.162Z,10.70
2023-01-17T12:49:28.543Z,9.38
2023-01-17T12:52:06.712Z,9.85
2023-01-17T12:54:39.026Z,12.73
2023-01-17T12:57:16.585Z,9.48
2023-01-17T12:59:57.978Z,11.87
2023-01-17T13:03:03.082Z,12.40
2023-01-17T13:05:49.745Z,10.15
2023-01-17T13:08:28.209Z,9.73
2023-01-17T13:11:30.645Z,9.00
2023-01-17T13:13:57.333Z,12.63
2023-01-17T13:16:33.022Z,11.57
2023-01-17T13:19:06.225Z,8.88
2023-01-17T13:21:34.343Z,18.05
2023-01-17T13:24:00.804Z,12.25
2023-01-17T13:26:29.907Z,11.00
2023-01-17T13:29:12.144Z,9.10
2023-01-17T13:31:47.952Z,7.68
2023-01-17T13:34:40.039Z,11.95
2023-01-17T13:37:30.102Z,11.20
2023-01-17T13:40:30.353Z,13.70
2023-01-17T13:43:00.946Z,14.68
2023-01-17T13:45:31.003Z,10.73
2023-01-17T13:48:12.544Z,9.20
2023-01-17T13:50:41.841Z,10.65
2023-01-17T13:53:36.053Z,8.63
2023-01-17T13:56:19.432Z,13.00
2023-01-17T13:58:45.845Z,8.60
2023-01-17T14:01:12.428Z,9.32
2023-01-17T14:03:51.127Z,8.38
2023-01-17T14:06:35.904Z,7.37
2023-01-17T14:09:08.588Z,8.00
2023-01-17T14:11:59.304Z,9.40
2023-01-17T14:14:34.729Z,14.20
2023-01-17T14:17:16.600Z,15.38
2023-01-17T14:19:46.476Z,8.40
2023-01-17T14:22:22.661Z,6.97
2023-01-17T14:25:08.066Z,8.02
2023-01-17T14:27:35.153Z,7.55
2023-01-17T14:30:16.176Z,8.15
2023-01-17T14:33:02.758Z,9.70
2023-01-17T14:35:32.469Z,7.18
2023-01-17T14:37:59.977Z,10.35
2023-01-17T14:40:28.828Z,12.73
2023-01-17T14:43:13.862Z,11.48
2023-01-17T14:45:42.344Z,15.63
2023-01-17T14:48:22.490Z,8.82
2023-01-17T14:50:50.882Z,9.77
2023-01-17T14:53:24.815Z,12.00
2023-01-17T14:55:53.517Z,12.38
2023-01-17T14:58:31.083Z,9.70
2023-01-17T15:01:01.477Z,15.85
2023-01-17T15:03:30.218Z,8.65
2023-01-17T15:06:04.888Z,9.48
2023-01-17T15:08:35.520Z,10.18
2023-01-17T15:11:10.119Z,8.97
2023-01-17T15:13:45.055Z,13.63
2023-01-17T15:16:19.794Z,10.73
2023-01-17T15:18:46.583Z,10.75
2023-01-17T15:21:17.204Z,13.90
2023-01-17T15:23:55.233Z,14.37
2023-01-17T15:26:25.175Z,12.60
2023-01-17T15:28:53.301Z,9.60
2023-01-17T15:31:36.686Z,12.38
2023-01-17T15:34:07.083Z,14.45
2023-01-17T15:36:34.116Z,13.03
2023-01-17T15:39:04.963Z,12.45
2023-01-17T15:41:34.628Z,13.43
2023-01-17T15:44:01.532Z,13.75
2023-01-17T15:46:42.728Z,16.30
2023-01-17T15:49:20.708Z,14.90
2023-01-17T15:52:14.864Z,11.90
2023-01-17T15:54:42.902Z,13.13
2023-01-17T15:57:24.624Z,14.93
2023-01-17T16:00:04.856Z,15.15
2023-01-17T16:02:36.130Z,20.53
2023-01-17T16:05:24.646Z,18.40
2023-01-17T16:07:56.681Z,19.35
2023-01-17T16:10:29.125Z,18.52
2023-01-17T16:12:55.757Z,22.45
2023-01-17T16:15:23.008Z,20.73
2023-01-17T16:17:52.604Z,19.45
2023-01-17T16:20:23.671Z,20.10
2023-01-17T16:22:50.865Z,25.08
2023-01-17T16:25:21.254Z,22.42
2023-01-17T16:27:48.325Z,25.83
2023-01-17T16:30:18.496Z,26.05
2023-01-17T16:32:46.714Z,28.38
2023-01-17T16:35:21.120Z,40.97
2023-01-17T16:37:51.813Z,37.55
2023-01-17T16:40:20.168Z,42.13
2023-01-17T16:42:46.951Z,39.95
2023-01-17T16:45:14.479Z,34.50
2023-01-17T16:47:46.292Z,33.38
2023-01-17T16:50:15.821Z,32.00
2023-01-17T16:52:42.315Z,31.77
2023-01-17T16:55:12.982Z,30.90
2023-01-17T16:57:40.073Z,31.58
2023-01-17T17:00:08.675Z,32.70
2023-01-17T17:02:35.241Z,30.52
2023-01-17T17:05:01.803Z,30.40
2023-01-17T17:07:28.334Z,27.35
2023-01-17T17:09:54.801Z,25.35
2023-01-17T17:12:21.323Z,30.60
2023-01-17T17:14:47.876Z,39.15
2023-01-17T17:17:14.738Z,76.73
2023-01-17T17:19:41.377Z,72.63
2023-01-17T17:22:07.898Z,64.75
2023-01-17T17:24:34.396Z,55.30
2023-01-17T17:27:00.918Z,61.72
2023-01-17T17:29:27.428Z,61.60
2023-01-17T17:31:53.869Z,52.13
2023-01-17T17:34:20.378Z,40.17
2023-01-17T17:36:46.996Z,35.97
2023-01-17T17:39:14.717Z,29.02
2023-01-17T17:41:43.350Z,23.77
2023-01-17T17:44:10.211Z,25.73
2023-01-17T17:46:36.836Z,26.50
2023-01-17T17:49:03.672Z,34.63
2023-01-17T17:51:35.538Z,35.13
2023-01-17T17:54:05.757Z,35.00
2023-01-17T17:56:33.585Z,36.15
2023-01-17T17:59:01.593Z,38.40
2023-01-17T18:01:29.421Z,33.72
2023-01-17T18:04:00.508Z,33.75
2023-01-17T18:06:27.003Z,31.97
2023-01-17T18:08:53.871Z,35.97
2023-01-17T18:11:23.181Z,29.90
2023-01-17T18:13:51.781Z,26.65
2023-01-17T18:16:22.893Z,28.95
2023-01-17T18:18:52.315Z,28.87
2023-01-17T18:21:21.803Z,25.95
2023-01-17T18:23:48.272Z,30.42
2023-01-17T18:26:26.989Z,40.97
2023-01-17T18:28:55.294Z,33.13
2023-01-17T18:31:23.162Z,36.30
2023-01-17T18:33:49.671Z,33.30
2023-01-17T18:36:16.111Z,31.80
2023-01-17T18:38:45.245Z,38.45
2023-01-17T18:41:22.794Z,36.90
2023-01-17T18:43:49.441Z,37.20
2023-01-17T18:46:17.334Z,40.38
2023-01-17T18:48:44.135Z,39.72
2023-01-17T18:51:14.032Z,37.83
2023-01-17T18:53:41.979Z,50.15
2023-01-17T18:56:10.867Z,41.53
2023-01-17T18:58:42.626Z,44.45
2023-01-17T19:01:11.987Z,63.15
2023-01-17T19:03:40.354Z,70.30
2023-01-17T19:06:09.718Z,65.30
2023-01-17T19:08:37.012Z,63.13
2023-01-17T19:11:03.862Z,46.22
2023-01-17T19:13:34.766Z,43.97
2023-01-17T19:16:02.987Z,47.28
2023-01-17T19:18:30.263Z,41.58
2023-01-17T19:21:05.423Z,44.50
2023-01-17T19:23:31.949Z,40.67
2023-01-17T19:25:58.400Z,46.70
2023-01-17T19:28:24.961Z,43.65
2023-01-17T19:31:01.922Z,48.55
2023-01-17T19:33:28.388Z,70.30
2023-01-17T19:35:58.953Z,60.63
2023-01-17T19:38:25.416Z,52.53
2023-01-17T19:40:51.958Z,53.03
2023-01-17T19:43:18.495Z,54.08
2023-01-17T19:45:54.621Z,51.50
2023-01-17T19:48:21.176Z,56.53
2023-01-17T19:50:47.577Z,53.63
2023-01-17T19:53:14.140Z,55.33
2023-01-17T19:55:40.685Z,55.60
2023-01-17T19:58:07.144Z,51.37
2023-01-17T20:00:33.739Z,54.40
2023-01-17T20:03:00.256Z,54.70
2023-01-17T20:05:26.901Z,53.75
2023-01-17T20:07:53.446Z,56.13
2023-01-17T20:10:19.969Z,49.20
2023-01-17T20:12:46.587Z,45.35
2023-01-17T20:15:13.137Z,46.45
2023-01-17T20:17:39.656Z,42.95
2023-01-17T20:20:07.578Z,40.50
2023-01-17T20:22:34.095Z,34.13
2023-01-17T20:25:00.604Z,36.03
2023-01-17T20:27:28.013Z,30.52
2023-01-17T20:29:54.500Z,36.85
2023-01-17T20:32:21.057Z,41.60
2023-01-17T20:34:47.489Z,42.70
2023-01-17T20:37:14.000Z,42.17
2023-01-17T20:39:40.517Z,56.97
2023-01-17T20:42:07.066Z,74.63
2023-01-17T20:44:33.596Z,42.58
2023-01-17T20:47:00.546Z,41.13
2023-01-17T20:49:27.089Z,42.08
2023-01-17T20:51:54.461Z,36.40
2023-01-17T20:54:21.438Z,35.92
2023-01-17T20:56:48.051Z,39.55
2023-01-17T20:59:17.784Z,42.97
2023-01-17T21:01:45.391Z,39.95
2023-01-17T21:04:12.406Z,39.17
2023-01-17T21:06:40.238Z,35.88
2023-01-17T21:09:08.268Z,37.28
2023-01-17T21:11:34.904Z,37.10
2023-01-17T21:14:01.620Z,36.83
2023-01-17T21:16:28.780Z,41.22
2023-01-17T21:18:55.325Z,40.75
2023-01-17T21:21:24.630Z,36.00
2023-01-17T21:23:53.525Z,39.27
2023-01-17T21:26:21.521Z,36.28
2023-01-17T21:28:50.008Z,36.67
2023-01-17T21:31:28.492Z,40.45
2023-01-17T21:33:56.510Z,38.63
2023-01-17T21:36:25.611Z,39.83
2023-01-17T21:38:54.595Z,41.17
2023-01-17T21:41:29.602Z,42.97
2023-01-17T21:43:58.686Z,59.50
2023-01-17T21:46:26.387Z,75.03
2023-01-17T21:48:53.179Z,77.27
2023-01-17T21:51:20.049Z,74.90
2023-01-17T21:53:46.574Z,71.43
2023-01-17T21:56:14.447Z,51.65
2023-01-17T21:58:40.980Z,47.20
2023-01-17T22:01:08.035Z,48.17
2023-01-17T22:03:35.922Z,44.45
2023-01-17T22:06:02.760Z,39.72
2023-01-17T22:08:32.307Z,44.60
2023-01-17T22:11:06.376Z,43.63
2023-01-17T22:13:33.986Z,43.10
2023-01-17T22:16:03.366Z,41.88
2023-01-17T22:18:31.059Z,42.90
2023-01-17T22:20:57.693Z,41.20
2023-01-17T22:23:24.151Z,39.20
2023-01-17T22:25:50.668Z,40.43
2023-01-17T22:28:17.193Z,40.28
2023-01-17T22:30:43.725Z,37.38
2023-01-17T22:33:10.274Z,35.28
2023-01-17T22:35:36.737Z,36.10
2023-01-17T22:38:03.268Z,31.47
2023-01-17T22:40:29.754Z,37.08
2023-01-17T22:42:56.538Z,39.42
2023-01-17T22:45:23.143Z,37.58
2023-01-17T22:47:49.649Z,44.88
2023-01-17T22:50:16.461Z,44.43
2023-01-17T22:52:43.031Z,37.83
2023-01-17T22:55:09.711Z,38.05
2023-01-17T22:57:36.233Z,40.80
2023-01-17T23:00:02.972Z,33.47
2023-01-17T23:02:29.443Z,32.93
2023-01-17T23:04:55.953Z,33.10
2023-01-17T23:07:22.492Z,33.83
2023-01-17T23:09:48.983Z,33.15
2023-01-17T23:12:15.411Z,34.90
2023-01-17T23:14:41.973Z,36.43
2023-01-17T23:17:08.540Z,38.65
2023-01-17T23:19:40.887Z,34.08
2023-01-17T23:22:10.785Z,35.22
2023-01-17T23:24:39.175Z,35.60
2023-01-17T23:27:05.921Z,37.37
2023-01-17T23:29:32.446Z,33.65
2023-01-17T23:31:58.945Z,37.13
2023-01-17T23:34:25.497Z,35.72
2023-01-17T23:36:51.983Z,38.35
2023-01-17T23:39:18.497Z,41.50
2023-01-17T23:41:45.006Z,39.97
2023-01-17T23:44:11.612Z,40.20
2023-01-17T23:46:38.212Z,37.42
2023-01-17T23:49:04.717Z,38.83
2023-01-17T23:51:31.229Z,35.63
2023-01-17T23:53:57.699Z,33.60
2023-01-17T23:56:24.490Z,35.95
2023-01-17T23:58:51.071Z,35.05
